Time;durP1;ratioP1;P1;durP2;ratioP2;P2;SDS_P1;SDS_P2;PMS_P1;PMS_P2;Temp;Humidity;BMP_temperature;BMP_pressure;BME280_temperature;BME280_humidity;BME280_pressure;Samples;Min_cycle;Max_cycle;Signal;HPM_P1;HPM_P2
2022/04/13 00:01:43;;;;;;;;;;;10.30;61.30;;;;;;4994236;28;20341;-56
2022/04/13 00:04:09;;;;;;;;;;;10.30;61.70;;;;;;4994160;28;19910;-56
2022/04/13 00:06:38;;;;;;;;;;;10.30;62.10;;;;;;4994139;28;19918;-59
2022/04/13 00:09:05;;;;;;;;;;;10.30;61.60;;;;;;4994415;28;19945;-59
2022/04/13 00:11:30;;;;;;;;;;;10.30;62.30;;;;;;4994219;28;20386;-61
2022/04/13 00:13:56;;;;;;;;;;;10.20;61.80;;;;;;4994157;28;19910;-57
2022/04/13 00:16:21;;;;;;;;;;;10.30;61.30;;;;;;4994302;28;20354;-61
2022/04/13 00:18:47;;;;;;;;;;;10.30;61.30;;;;;;4994171;28;20373;-68
2022/04/13 00:21:12;;;;;;;;;;;10.40;60.70;;;;;;4993944;28;19910;-57
2022/04/13 00:23:38;;;;;;;;;;;10.40;60.20;;;;;;4994020;28;19910;-55
2022/04/13 00:26:04;;;;;;;;;;;10.30;61.80;;;;;;4994047;28;20008;-66
2022/04/13 00:28:29;;;;;;;;;;;10.30;61.40;;;;;;4994327;28;19980;-69
2022/04/13 00:30:55;;;;;;;;;;;10.20;61.60;;;;;;4994326;28;19914;-60
2022/04/13 00:33:20;;;;;;;;;;;10.20;61.60;;;;;;4993958;28;19960;-60
2022/04/13 00:35:46;;;;;;;;;;;10.40;61.40;;;;;;4994218;28;19917;-57
2022/04/13 00:38:11;;;;;;;;;;;10.40;60.10;;;;;;4994037;28;19918;-59
2022/04/13 00:40:39;;;;;;;;;;;10.50;61.00;;;;;;4993933;28;19937;-64
2022/04/13 00:43:05;;;;;;;;;;;10.50;61.30;;;;;;4993798;28;19917;-70
2022/04/13 00:45:30;;;;;;;;;;;10.40;60.70;;;;;;4993806;28;19918;-64
2022/04/13 00:47:56;;;;;;;;;;;10.30;61.20;;;;;;4994017;28;19909;-56
2022/04/13 00:50:23;;;;;;;;;;;10.40;61.60;;;;;;4994149;28;19910;-64
2022/04/13 00:52:49;;;;;;;;;;;10.40;62.10;;;;;;4993852;28;19910;-57
2022/04/13 00:55:15;;;;;;;;;;;10.40;61.50;;;;;;4994167;28;20262;-60
2022/04/13 00:57:41;;;;;;;;;;;10.30;61.50;;;;;;4993678;28;19928;-56
2022/04/13 01:00:09;;;;;;;;;;;10.30;62.00;;;;;;4993973;28;19968;-58
2022/04/13 01:02:39;;;;;;;;;;;10.20;62.80;;;;;;4993809;28;19910;-56
2022/04/13 01:05:05;;;;;;;;;;;10.10;63.20;;;;;;4993878;28;19925;-56
2022/04/13 01:07:31;;;;;;;;;;;10.10;63.30;;;;;;4993756;28;20396;-59
2022/04/13 01:10:00;;;;;;;;;;;10.10;62.90;;;;;;4993862;28;19949;-59
2022/04/13 01:12:25;;;;;;;;;;;10.10;63.20;;;;;;4996976;28;19952;-57
2022/04/13 01:14:51;;;;;;;;;;;10.10;63.90;;;;;;4996932;28;19959;-62
2022/04/13 01:17:17;;;;;;;;;;;10.10;63.90;;;;;;4996641;28;20301;-56
2022/04/13 01:19:44;;;;;;;;;;;10.00;64.20;;;;;;4997027;28;19960;-57
2022/04/13 01:22:19;;;;;;;;;;;10.10;63.80;;;;;;4997011;28;19910;-58
2022/04/13 01:24:45;;;;;;;;;;;10.00;64.10;;;;;;4996748;28;19914;-56
2022/04/13 01:27:10;;;;;;;;;;;10.10;64.10;;;;;;4997218;28;19957;-56
2022/04/13 01:29:36;;;;;;;;;;;10.00;64.20;;;;;;4997119;28;20282;-57
2022/04/13 01:32:02;;;;;;;;;;;10.10;63.70;;;;;;4996840;28;20384;-56
2022/04/13 01:34:28;;;;;;;;;;;10.10;63.60;;;;;;4996832;28;19910;-55
2022/04/13 01:36:53;;;;;;;;;;;10.00;64.40;;;;;;4996722;28;19979;-55
2022/04/13 01:39:20;;;;;;;;;;;10.00;64.50;;;;;;4996616;28;19917;-56
2022/04/13 01:41:45;;;;;;;;;;;10.00;64.40;;;;;;4996444;28;20354;-56
2022/04/13 01:44:13;;;;;;;;;;;10.10;64.20;;;;;;4996990;28;19913;-55
2022/04/13 01:46:39;;;;;;;;;;;10.10;63.30;;;;;;4996483;28;20013;-55
2022/04/13 01:49:04;;;;;;;;;;;10.10;63.50;;;;;;4996744;28;20008;-55
2022/04/13 01:51:30;;;;;;;;;;;10.10;63.70;;;;;;4996293;28;20024;-56
2022/04/13 01:53:55;;;;;;;;;;;10.20;63.70;;;;;;4996651;28;19968;-55
2022/04/13 01:56:21;;;;;;;;;;;10.10;63.80;;;;;;4996492;28;20426;-56
2022/04/13 01:58:46;;;;;;;;;;;9.90;64.70;;;;;;4996234;28;20012;-56
2022/04/13 02:01:12;;;;;;;;;;;9.90;65.00;;;;;;4996349;28;19910;-55
2022/04/13 02:03:37;;;;;;;;;;;9.90;65.40;;;;;;4996380;28;19909;-55
2022/04/13 02:06:06;;;;;;;;;;;9.90;64.80;;;;;;4996329;28;19964;-56
2022/04/13 02:08:31;;;;;;;;;;;10.00;64.20;;;;;;4995998;28;20382;-56
2022/04/13 02:10:57;;;;;;;;;;;10.00;64.30;;;;;;4996449;28;19933;-54
2022/04/13 02:13:23;;;;;;;;;;;9.90;64.80;;;;;;4996058;28;19941;-56
2022/04/13 02:15:48;;;;;;;;;;;9.90;63.80;;;;;;4996169;28;19910;-55
2022/04/13 02:18:14;;;;;;;;;;;10.00;63.60;;;;;;4995884;28;19964;-55
2022/04/13 02:20:40;;;;;;;;;;;10.10;63.50;;;;;;4996145;28;19910;-56
2022/04/13 02:23:05;;;;;;;;;;;10.10;64.10;;;;;;4995413;28;20332;-55
2022/04/13 02:25:33;;;;;;;;;;;10.00;63.50;;;;;;4995705;28;19922;-56
2022/04/13 02:28:00;;;;;;;;;;;9.80;63.60;;;;;;4995820;28;20276;-56
2022/04/13 02:30:26;;;;;;;;;;;10.00;63.80;;;;;;4995844;28;19997;-55
2022/04/13 02:32:51;;;;;;;;;;;10.00;63.40;;;;;;4995887;28;19956;-56
2022/04/13 02:35:17;;;;;;;;;;;10.10;63.20;;;;;;4995562;28;19910;-56
2022/04/13 02:37:43;;;;;;;;;;;10.10;63.70;;;;;;4995979;28;20358;-56
2022/04/13 02:40:09;;;;;;;;;;;10.10;63.20;;;;;;4995578;28;19910;-57
2022/04/13 02:42:36;;;;;;;;;;;10.00;64.00;;;;;;4994124;28;20000;-56
2022/04/13 02:45:02;;;;;;;;;;;10.00;63.70;;;;;;4995463;28;19922;-56
2022/04/13 02:47:27;;;;;;;;;;;10.00;64.40;;;;;;4995659;28;19913;-56
2022/04/13 02:49:56;;;;;;;;;;;10.00;63.90;;;;;;4995457;28;20320;-56
2022/04/13 02:52:23;;;;;;;;;;;10.00;64.30;;;;;;4995454;28;19910;-55
2022/04/13 02:54:49;;;;;;;;;;;9.90;64.80;;;;;;4995129;28;19910;-56
2022/04/13 02:57:14;;;;;;;;;;;9.90;64.50;;;;;;4995165;28;19957;-56
2022/04/13 02:59:40;;;;;;;;;;;9.90;64.80;;;;;;4995389;28;19925;-58
2022/04/13 03:02:06;;;;;;;;;;;9.80;64.80;;;;;;4995110;28;19910;-56
2022/04/13 03:04:32;;;;;;;;;;;9.90;65.10;;;;;;4995032;28;20280;-56
2022/04/13 03:06:58;;;;;;;;;;;9.90;64.90;;;;;;4994978;28;19909;-56
2022/04/13 03:09:24;;;;;;;;;;;9.80;65.00;;;;;;4995195;28;19933;-56
2022/04/13 03:11:49;;;;;;;;;;;9.70;65.10;;;;;;4994828;28;20350;-54
2022/04/13 03:14:15;;;;;;;;;;;9.80;65.40;;;;;;4995286;28;19910;-54
2022/04/13 03:16:40;;;;;;;;;;;9.80;64.90;;;;;;4994908;28;20353;-55
2022/04/13 03:19:06;;;;;;;;;;;9.70;65.60;;;;;;4994767;28;19909;-56
2022/04/13 03:21:32;;;;;;;;;;;9.70;66.30;;;;;;4994650;28;20421;-56
2022/04/13 03:23:57;;;;;;;;;;;9.60;66.30;;;;;;4994986;28;19925;-55
2022/04/13 03:26:23;;;;;;;;;;;9.60;66.10;;;;;;4994853;28;20366;-54
2022/04/13 03:28:49;;;;;;;;;;;9.60;66.10;;;;;;4994892;28;19910;-56
2022/04/13 03:31:16;;;;;;;;;;;9.60;65.80;;;;;;4994558;28;19909;-55
2022/04/13 03:33:42;;;;;;;;;;;9.60;66.00;;;;;;4994065;28;19914;-57
2022/04/13 03:36:08;;;;;;;;;;;9.70;66.00;;;;;;4994722;28;19917;-56
2022/04/13 03:38:34;;;;;;;;;;;9.60;66.20;;;;;;4994525;28;19941;-56
2022/04/13 03:41:02;;;;;;;;;;;9.70;65.60;;;;;;4994626;28;19910;-57
2022/04/13 03:43:27;;;;;;;;;;;9.80;65.50;;;;;;4994665;28;19909;-56
2022/04/13 03:45:53;;;;;;;;;;;9.90;64.20;;;;;;4994615;28;20388;-55
2022/04/13 03:48:18;;;;;;;;;;;9.90;64.40;;;;;;4994266;28;19910;-55
2022/04/13 03:50:44;;;;;;;;;;;9.90;64.90;;;;;;4994831;28;19914;-55
2022/04/13 03:53:10;;;;;;;;;;;9.90;64.00;;;;;;4994373;28;19910;-55
2022/04/13 03:55:35;;;;;;;;;;;10.10;63.10;;;;;;4994273;28;20004;-56
2022/04/13 03:58:01;;;;;;;;;;;10.20;62.70;;;;;;4994057;28;19925;-56
2022/04/13 04:00:26;;;;;;;;;;;10.30;62.10;;;;;;4994432;28;19914;-56
2022/04/13 04:02:52;;;;;;;;;;;10.40;61.30;;;;;;4994069;28;19917;-56
2022/04/13 04:05:17;;;;;;;;;;;10.30;61.80;;;;;;4994359;28;19917;-56
2022/04/13 04:07:43;;;;;;;;;;;10.30;62.40;;;;;;4994223;28;20270;-56
2022/04/13 04:10:09;;;;;;;;;;;10.30;62.20;;;;;;4994401;28;20346;-56
2022/04/13 04:12:39;;;;;;;;;;;10.30;62.60;;;;;;4994197;28;20431;-57
2022/04/13 04:15:05;;;;;;;;;;;10.40;62.00;;;;;;4994541;28;20029;-57
2022/04/13 04:17:31;;;;;;;;;;;10.50;61.70;;;;;;4994003;28;19910;-56
2022/04/13 04:19:56;;;;;;;;;;;10.40;62.10;;;;;;4994283;28;20052;-64
2022/04/13 04:22:23;;;;;;;;;;;10.40;61.90;;;;;;4994394;28;19968;-70
2022/04/13 04:24:48;;;;;;;;;;;10.50;62.00;;;;;;4994186;28;19913;-71
2022/04/13 04:27:14;;;;;;;;;;;10.40;62.10;;;;;;4994167;28;19910;-71
2022/04/13 04:29:39;;;;;;;;;;;10.50;61.50;;;;;;4994341;28;20001;-68
2022/04/13 04:32:06;;;;;;;;;;;10.60;61.40;;;;;;4993995;28;19917;-68
2022/04/13 04:34:33;;;;;;;;;;;10.50;61.50;;;;;;4994016;28;20273;-62
2022/04/13 04:36:59;;;;;;;;;;;10.40;62.60;;;;;;4994319;28;20251;-63
2022/04/13 04:39:24;;;;;;;;;;;10.40;62.60;;;;;;4994040;28;19910;-59
2022/04/13 04:41:50;;;;;;;;;;;10.40;62.30;;;;;;4994004;28;19964;-68
2022/04/13 04:44:16;;;;;;;;;;;10.50;62.00;;;;;;4994621;28;19949;-63
2022/04/13 04:46:41;;;;;;;;;;;10.50;61.30;;;;;;4997866;28;20366;-69
2022/04/13 04:49:07;;;;;;;;;;;10.60;61.20;;;;;;4997790;28;19925;-65
2022/04/13 04:51:32;;;;;;;;;;;10.60;61.10;;;;;;4997508;28;19909;-59
2022/04/13 04:53:59;;;;;;;;;;;10.80;60.60;;;;;;4997595;28;19914;-58
2022/04/13 04:56:25;;;;;;;;;;;10.70;60.90;;;;;;4997419;28;19914;-54
2022/04/13 04:58:50;;;;;;;;;;;10.70;61.40;;;;;;4997236;28;20381;-64
2022/04/13 05:01:16;;;;;;;;;;;10.70;61.50;;;;;;4997077;28;20069;-56
2022/04/13 05:03:44;;;;;;;;;;;10.70;61.30;;;;;;4997593;28;19914;-54
2022/04/13 05:06:10;;;;;;;;;;;10.70;61.10;;;;;;4997403;28;19918;-58
2022/04/13 05:08:35;;;;;;;;;;;10.70;61.80;;;;;;4997425;28;19917;-55
2022/04/13 05:11:02;;;;;;;;;;;10.60;63.00;;;;;;4997140;28;19945;-55
2022/04/13 05:13:29;;;;;;;;;;;10.70;61.60;;;;;;4997541;28;19999;-55
2022/04/13 05:15:54;;;;;;;;;;;10.70;62.60;;;;;;4997379;28;19917;-56
2022/04/13 05:18:20;;;;;;;;;;;10.70;63.00;;;;;;4997712;28;19910;-55
2022/04/13 05:20:45;;;;;;;;;;;10.70;64.00;;;;;;4997384;28;19933;-56
2022/04/13 05:23:11;;;;;;;;;;;10.50;64.60;;;;;;4997098;28;19913;-55
2022/04/13 05:25:37;;;;;;;;;;;10.50;65.40;;;;;;4997184;28;19918;-56
2022/04/13 05:28:02;;;;;;;;;;;10.50;66.10;;;;;;4996917;28;20305;-55
2022/04/13 05:30:28;;;;;;;;;;;10.50;66.10;;;;;;4997056;28;19969;-62
2022/04/13 05:32:58;;;;;;;;;;;10.60;66.50;;;;;;4996992;28;20373;-57
2022/04/13 05:35:25;;;;;;;;;;;10.50;66.50;;;;;;4997021;28;20389;-54
2022/04/13 05:37:51;;;;;;;;;;;10.80;68.00;;;;;;4996761;28;19910;-54
2022/04/13 05:40:17;;;;;;;;;;;11.00;65.90;;;;;;4997046;28;20282;-54
2022/04/13 05:42:42;;;;;;;;;;;11.20;65.70;;;;;;4996793;28;19909;-56
2022/04/13 05:45:09;;;;;;;;;;;11.40;64.80;;;;;;4996505;28;19920;-56
2022/04/13 05:47:34;;;;;;;;;;;11.60;64.40;;;;;;4996929;28;19910;-54
2022/04/13 05:50:00;;;;;;;;;;;11.70;63.60;;;;;;4997287;28;19989;-55
2022/04/13 05:52:26;;;;;;;;;;;11.90;63.70;;;;;;4996510;28;19909;-56
2022/04/13 05:54:52;;;;;;;;;;;12.00;62.80;;;;;;4996533;28;20265;-54
2022/04/13 05:57:17;;;;;;;;;;;12.20;61.80;;;;;;4995718;28;19909;-52
2022/04/13 05:59:43;;;;;;;;;;;12.30;60.70;;;;;;4995887;28;19914;-54
2022/04/13 06:02:09;;;;;;;;;;;12.50;60.10;;;;;;4996119;28;19916;-54
2022/04/13 06:04:34;;;;;;;;;;;12.60;59.20;;;;;;4996327;28;19910;-52
2022/04/13 06:07:00;;;;;;;;;;;12.70;60.00;;;;;;4996278;28;19913;-53
2022/04/13 06:09:26;;;;;;;;;;;12.80;61.20;;;;;;4996168;28;19910;-53
2022/04/13 06:11:52;;;;;;;;;;;13.00;59.80;;;;;;4996384;28;19948;-54
2022/04/13 06:14:17;;;;;;;;;;;13.30;60.10;;;;;;4996170;28;19910;-55
2022/04/13 06:16:43;;;;;;;;;;;13.40;60.50;;;;;;4995892;28;20380;-55
2022/04/13 06:19:09;;;;;;;;;;;13.60;60.50;;;;;;4996679;28;19913;-62
2022/04/13 06:21:34;;;;;;;;;;;13.80;59.90;;;;;;4996021;28;19963;-64
2022/04/13 06:24:00;;;;;;;;;;;13.90;59.50;;;;;;4995849;28;20390;-57
2022/04/13 06:26:26;;;;;;;;;;;14.10;59.30;;;;;;4995583;28;19957;-57
2022/04/13 06:28:52;;;;;;;;;;;14.20;59.00;;;;;;4995748;28;19921;-56
2022/04/13 06:31:18;;;;;;;;;;;14.30;57.00;;;;;;4994214;28;19920;-56
2022/04/13 06:33:44;;;;;;;;;;;14.50;57.60;;;;;;4996036;28;19997;-67
2022/04/13 06:36:09;;;;;;;;;;;14.70;57.00;;;;;;4995535;28;19960;-67
2022/04/13 06:38:35;;;;;;;;;;;14.90;55.70;;;;;;4995672;28;19910;-57
2022/04/13 06:41:01;;;;;;;;;;;15.10;55.40;;;;;;4995286;28;20017;-58
2022/04/13 06:43:26;;;;;;;;;;;15.30;53.80;;;;;;4995629;28;19937;-57
2022/04/13 06:45:53;;;;;;;;;;;15.50;51.70;;;;;;4995423;28;20254;-56
2022/04/13 06:48:18;;;;;;;;;;;15.60;51.40;;;;;;4995200;28;19913;-56
2022/04/13 06:50:44;;;;;;;;;;;15.80;50.80;;;;;;4995233;28;19910;-60
2022/04/13 06:53:09;;;;;;;;;;;16.00;48.60;;;;;;4995180;28;20378;-55
2022/04/13 06:55:37;;;;;;;;;;;16.10;47.10;;;;;;4995354;28;20262;-58
2022/04/13 06:58:03;;;;;;;;;;;16.10;46.30;;;;;;4994802;28;19921;-55
2022/04/13 07:00:28;;;;;;;;;;;16.10;46.30;;;;;;4995018;28;20223;-55
2022/04/13 07:02:57;;;;;;;;;;;15.70;47.30;;;;;;4994956;28;19917;-58
2022/04/13 07:05:26;;;;;;;;;;;15.50;48.20;;;;;;4994890;28;19913;-56
2022/04/13 07:07:52;;;;;;;;;;;15.30;48.10;;;;;;4994382;28;19913;-55
2022/04/13 07:10:18;;;;;;;;;;;15.60;48.40;;;;;;4994963;28;19964;-56
2022/04/13 07:12:43;;;;;;;;;;;15.70;49.40;;;;;;4994773;28;19922;-57
2022/04/13 07:15:09;;;;;;;;;;;15.60;48.90;;;;;;4994867;28;20287;-55
2022/04/13 07:17:35;;;;;;;;;;;15.80;49.10;;;;;;4994777;28;19953;-57
2022/04/13 07:20:00;;;;;;;;;;;15.90;48.30;;;;;;4994433;28;19922;-61
2022/04/13 07:22:26;;;;;;;;;;;16.20;49.60;;;;;;4985484;28;19910;-62
2022/04/13 07:24:52;;;;;;;;;;;16.30;47.50;;;;;;4989626;28;19972;-58
2022/04/13 07:27:17;;;;;;;;;;;16.30;47.50;;;;;;4994673;28;19910;-57
2022/04/13 07:29:43;;;;;;;;;;;16.40;47.60;;;;;;4995124;28;20473;-61
2022/04/13 07:32:09;;;;;;;;;;;16.30;47.50;;;;;;4994644;28;19917;-57
2022/04/13 07:34:35;;;;;;;;;;;16.50;47.50;;;;;;4994421;28;19910;-55
2022/04/13 07:37:01;;;;;;;;;;;16.70;47.00;;;;;;4994361;28;19964;-57
2022/04/13 07:39:26;;;;;;;;;;;17.00;46.60;;;;;;4994829;28;19953;-58
2022/04/13 07:41:52;;;;;;;;;;;17.10;45.20;;;;;;4994347;28;19921;-56
2022/04/13 07:44:18;;;;;;;;;;;17.00;45.90;;;;;;4993087;28;19917;-58
2022/04/13 07:46:43;;;;;;;;;;;17.30;45.70;;;;;;4994495;28;19918;-58
2022/04/13 07:49:09;;;;;;;;;;;17.20;44.50;;;;;;4994618;28;19909;-57
2022/04/13 07:51:35;;;;;;;;;;;17.50;44.80;;;;;;4994348;28;19910;-58
2022/04/13 07:54:03;;;;;;;;;;;17.50;43.70;;;;;;4994333;28;19910;-57
2022/04/13 07:56:29;;;;;;;;;;;17.70;44.70;;;;;;4994472;28;19964;-57
2022/04/13 07:58:55;;;;;;;;;;;17.90;43.20;;;;;;4994169;28;19925;-58
2022/04/13 08:01:20;;;;;;;;;;;17.70;43.20;;;;;;4993353;28;19917;-62
2022/04/13 08:03:46;;;;;;;;;;;17.60;42.90;;;;;;4993202;28;19910;-56
2022/04/13 08:06:12;;;;;;;;;;;17.70;43.50;;;;;;4994014;28;19922;-57
2022/04/13 08:08:38;;;;;;;;;;;17.70;43.40;;;;;;4995339;28;19910;-56
2022/04/13 08:11:04;;;;;;;;;;;17.40;43.60;;;;;;4994222;28;19940;-56
2022/04/13 08:13:29;;;;;;;;;;;17.30;44.70;;;;;;4994351;28;19914;-58
2022/04/13 08:15:55;;;;;;;;;;;17.40;45.00;;;;;;4994464;28;19910;-56
2022/04/13 08:18:21;;;;;;;;;;;17.60;45.80;;;;;;4994368;28;19924;-55
2022/04/13 08:20:46;;;;;;;;;;;17.90;45.20;;;;;;4996861;28;20258;-60
2022/04/13 08:23:12;;;;;;;;;;;18.40;50.90;;;;;;4997960;28;20004;-60
2022/04/13 08:25:38;;;;;;;;;;;18.60;45.70;;;;;;4997956;28;20013;-58
2022/04/13 08:28:03;;;;;;;;;;;18.50;43.40;;;;;;4998083;28;19913;-60
2022/04/13 08:30:29;;;;;;;;;;;18.10;43.70;;;;;;4998269;28;20338;-57
2022/04/13 08:32:54;;;;;;;;;;;17.60;44.70;;;;;;4997475;28;19910;-57
2022/04/13 08:35:20;;;;;;;;;;;17.70;49.70;;;;;;4997139;28;20234;-58
2022/04/13 08:37:45;;;;;;;;;;;18.20;51.20;;;;;;4997659;28;19910;-61
2022/04/13 08:40:12;;;;;;;;;;;18.60;46.80;;;;;;4997607;28;20280;-57
2022/04/13 08:43:04;;;;;;;;;;;18.30;44.60;;;;;;4997624;28;20330;-60
2022/04/13 08:45:33;;;;;;;;;;;18.20;45.10;;;;;;4995505;28;19918;-58
2022/04/13 08:48:00;;;;;;;;;;;17.90;45.00;;;;;;4997611;28;19909;-58
2022/04/13 08:50:27;;;;;;;;;;;17.70;45.90;;;;;;4997519;28;19950;-57
2022/04/13 08:53:02;;;;;;;;;;;17.80;47.70;;;;;;4997364;28;20273;-54
2022/04/13 08:55:28;;;;;;;;;;;17.90;45.50;;;;;;4997368;28;19979;-54
2022/04/13 08:57:56;;;;;;;;;;;17.80;45.10;;;;;;4997494;28;20366;-57
2022/04/13 09:00:24;;;;;;;;;;;17.90;46.60;;;;;;4997376;28;19917;-53
2022/04/13 09:02:58;;;;;;;;;;;17.90;46.20;;;;;;4997504;28;19945;-62
2022/04/13 09:05:25;;;;;;;;;;;18.00;44.50;;;;;;4997048;28;19967;-65
2022/04/13 09:08:07;;;;;;;;;;;17.50;44.10;;;;;;4997470;28;19910;-60
2022/04/13 09:10:33;;;;;;;;;;;17.40;45.30;;;;;;4997079;28;19910;-59
2022/04/13 09:12:58;;;;;;;;;;;17.70;48.30;;;;;;4997207;28;20287;-62
2022/04/13 09:15:25;;;;;;;;;;;18.00;45.70;;;;;;4996897;28;20263;-61
2022/04/13 09:17:51;;;;;;;;;;;18.10;43.80;;;;;;4996884;28;19929;-61
2022/04/13 09:20:16;;;;;;;;;;;17.70;43.40;;;;;;4996985;28;19910;-59
2022/04/13 09:22:43;;;;;;;;;;;17.70;44.70;;;;;;4996924;28;19937;-61
2022/04/13 09:25:09;;;;;;;;;;;17.90;44.50;;;;;;4996823;28;20281;-62
2022/04/13 09:27:36;;;;;;;;;;;18.10;43.10;;;;;;4997163;28;20029;-64
2022/04/13 09:30:01;;;;;;;;;;;18.40;43.90;;;;;;4997026;28;19914;-64
2022/04/13 09:32:28;;;;;;;;;;;18.30;39.50;;;;;;4995704;28;19917;-63
2022/04/13 09:34:54;;;;;;;;;;;18.10;40.00;;;;;;4997444;28;20273;-63
2022/04/13 09:37:20;;;;;;;;;;;17.80;40.70;;;;;;4996902;28;19917;-63
2022/04/13 09:39:46;;;;;;;;;;;17.70;41.70;;;;;;4996769;28;20316;-65
2022/04/13 09:42:13;;;;;;;;;;;17.70;42.20;;;;;;4996696;28;20012;-62
2022/04/13 09:44:40;;;;;;;;;;;17.80;42.60;;;;;;4996675;28;19941;-63
2022/04/13 09:47:06;;;;;;;;;;;17.80;42.00;;;;;;4996782;28;19958;-67
2022/04/13 09:49:32;;;;;;;;;;;17.90;41.60;;;;;;4996565;28;20362;-64
2022/04/13 09:51:58;;;;;;;;;;;18.10;41.60;;;;;;4996843;28;19917;-62
2022/04/13 09:54:24;;;;;;;;;;;18.20;40.00;;;;;;4996538;28;20012;-61
2022/04/13 09:56:49;;;;;;;;;;;17.80;40.60;;;;;;4996472;28;19910;-62
2022/04/13 09:59:25;;;;;;;;;;;17.90;40.30;;;;;;4996076;28;19928;-61
2022/04/13 10:01:51;;;;;;;;;;;17.60;38.80;;;;;;4996412;28;19914;-61
2022/04/13 10:04:23;;;;;;;;;;;17.50;39.50;;;;;;4996271;28;19917;-62
2022/04/13 10:06:49;;;;;;;;;;;17.40;38.10;;;;;;4996197;28;19918;-62
2022/04/13 10:09:14;;;;;;;;;;;17.40;38.60;;;;;;4996177;28;19910;-61
2022/04/13 10:11:56;;;;;;;;;;;17.80;39.10;;;;;;4996222;28;20394;-62
2022/04/13 10:14:22;;;;;;;;;;;17.90;37.90;;;;;;4996220;28;19917;-58
2022/04/13 10:16:51;;;;;;;;;;;17.90;37.10;;;;;;4996246;28;19910;-62
2022/04/13 10:19:18;;;;;;;;;;;18.30;35.20;;;;;;4996270;28;19917;-65
2022/04/13 10:21:48;;;;;;;;;;;18.30;34.70;;;;;;4994518;28;19910;-60
2022/04/13 10:24:26;;;;;;;;;;;18.20;36.90;;;;;;4995946;28;20329;-64
2022/04/13 10:27:01;;;;;;;;;;;18.10;35.20;;;;;;4995859;28;19961;-60
2022/04/13 10:29:26;;;;;;;;;;;18.00;36.60;;;;;;4996148;28;19956;-65
2022/04/13 10:32:02;;;;;;;;;;;18.30;38.00;;;;;;4995793;28;20325;-64
2022/04/13 10:34:35;;;;;;;;;;;18.60;36.60;;;;;;4994360;28;19952;-62
2022/04/13 10:37:00;;;;;;;;;;;18.70;35.30;;;;;;4995576;28;19909;-61
2022/04/13 10:39:26;;;;;;;;;;;18.70;33.20;;;;;;4994268;28;20055;-62
2022/04/13 10:41:52;;;;;;;;;;;18.50;33.30;;;;;;4995736;28;19914;-62
2022/04/13 10:44:22;;;;;;;;;;;18.50;34.70;;;;;;4995271;28;19980;-65
2022/04/13 10:46:49;;;;;;;;;;;18.70;36.50;;;;;;4995691;28;19957;-63
2022/04/13 10:49:19;;;;;;;;;;;18.80;35.40;;;;;;4994859;28;20370;-60
2022/04/13 10:51:46;;;;;;;;;;;18.90;35.10;;;;;;4995289;28;19941;-65
2022/04/13 10:54:14;;;;;;;;;;;19.20;35.40;;;;;;4995519;28;20285;-60
2022/04/13 10:56:43;;;;;;;;;;;19.20;34.40;;;;;;4995244;28;20369;-64
2022/04/13 10:59:15;;;;;;;;;;;19.20;34.10;;;;;;4995225;28;19922;-61
2022/04/13 11:01:51;;;;;;;;;;;19.20;33.10;;;;;;4995107;28;20361;-63
2022/04/13 11:04:17;;;;;;;;;;;19.40;33.80;;;;;;4995316;28;20270;-59
2022/04/13 11:06:44;;;;;;;;;;;19.50;32.80;;;;;;4995325;28;19917;-64
2022/04/13 11:09:15;;;;;;;;;;;19.60;32.40;;;;;;4992008;28;19917;-62
2022/04/13 11:11:41;;;;;;;;;;;19.30;30.60;;;;;;4975439;28;19922;-62
2022/04/13 11:14:20;;;;;;;;;;;19.30;30.10;;;;;;4975557;28;20005;-70
2022/04/13 11:16:46;;;;;;;;;;;18.90;31.40;;;;;;4975567;28;20385;-62
2022/04/13 11:19:12;;;;;;;;;;;19.00;30.90;;;;;;4974716;28;20008;-63
2022/04/13 11:21:55;;;;;;;;;;;18.90;32.10;;;;;;4993775;28;20259;-69
2022/04/13 11:24:44;;;;;;;;;;;19.30;33.30;;;;;;4994548;28;19914;-61
2022/04/13 11:27:10;;;;;;;;;;;19.40;32.30;;;;;;4986144;28;19918;-64
2022/04/13 11:29:37;;;;;;;;;;;19.30;31.30;;;;;;4994052;28;20310;-63
2022/04/13 11:32:04;;;;;;;;;;;19.40;31.50;;;;;;4994142;28;19949;-64
2022/04/13 11:34:57;;;;;;;;;;;19.40;31.10;;;;;;4994332;28;19913;-65
2022/04/13 11:37:40;;;;;;;;;;;19.50;30.40;;;;;;4994150;28;20071;-60
2022/04/13 11:40:07;;;;;;;;;;;19.10;29.90;;;;;;4994050;28;19933;-59
2022/04/13 11:42:36;;;;;;;;;;;19.20;31.00;;;;;;4994178;28;20381;-58
2022/04/13 11:45:06;;;;;;;;;;;18.90;32.60;;;;;;4994060;28;19929;-60
2022/04/13 11:47:36;;;;;;;;;;;18.80;31.80;;;;;;4994031;28;19921;-63
2022/04/13 11:50:02;;;;;;;;;;;19.00;32.70;;;;;;4993890;28;19913;-63
2022/04/13 11:52:48;;;;;;;;;;;19.30;31.80;;;;;;4994007;28;20008;-64
2022/04/13 11:55:36;;;;;;;;;;;19.60;32.00;;;;;;4993471;28;19910;-61
2022/04/13 11:58:08;;;;;;;;;;;19.60;31.20;;;;;;4985728;28;19930;-60
2022/04/13 12:00:41;;;;;;;;;;;19.80;31.00;;;;;;4993885;28;19913;-58
2022/04/13 12:03:15;;;;;;;;;;;20.00;30.60;;;;;;4993939;28;20349;-59
2022/04/13 12:05:45;;;;;;;;;;;19.90;30.90;;;;;;4993769;28;20384;-68
2022/04/13 12:08:11;;;;;;;;;;;20.00;29.20;;;;;;4993983;28;19961;-62
2022/04/13 12:10:37;;;;;;;;;;;20.10;29.70;;;;;;4993825;28;19917;-70
2022/04/13 12:13:03;;;;;;;;;;;20.00;31.20;;;;;;4993589;28;19910;-59
2022/04/13 12:15:47;;;;;;;;;;;20.10;33.10;;;;;;4993979;28;19920;-56
2022/04/13 12:18:13;;;;;;;;;;;20.10;33.00;;;;;;4993749;28;19956;-63
2022/04/13 12:20:39;;;;;;;;;;;19.50;34.30;;;;;;4993913;28;19910;-58
2022/04/13 12:23:20;;;;;;;;;;;19.20;35.20;;;;;;4993582;28;19910;-59
2022/04/13 12:25:46;;;;;;;;;;;19.00;34.50;;;;;;4993712;28;19917;-57
2022/04/13 12:28:12;;;;;;;;;;;18.80;35.20;;;;;;4993515;28;19921;-57
2022/04/13 12:30:38;;;;;;;;;;;18.90;35.80;;;;;;4993616;28;19910;-61
2022/04/13 12:33:15;;;;;;;;;;;18.70;36.60;;;;;;4993384;28;20328;-58
2022/04/13 12:35:48;;;;;;;;;;;18.60;36.70;;;;;;4993615;28;20045;-59
2022/04/13 12:38:21;;;;;;;;;;;18.70;36.40;;;;;;4993617;28;19992;-58
2022/04/13 12:40:46;;;;;;;;;;;19.10;36.80;;;;;;4992812;28;19929;-65
2022/04/13 12:43:23;;;;;;;;;;;19.10;38.00;;;;;;4992839;28;19914;-58
2022/04/13 12:45:49;;;;;;;;;;;19.30;36.50;;;;;;4993431;28;20288;-58
2022/04/13 12:48:14;;;;;;;;;;;19.10;35.60;;;;;;4993389;28;19910;-58
2022/04/13 12:50:53;;;;;;;;;;;19.20;37.70;;;;;;4993286;28;20339;-66
2022/04/13 12:53:18;;;;;;;;;;;19.20;36.10;;;;;;4993300;28;19910;-62
2022/04/13 12:55:51;;;;;;;;;;;19.10;37.00;;;;;;4993373;28;19910;-68
2022/04/13 12:58:16;;;;;;;;;;;19.10;37.30;;;;;;4992757;28;19922;-59
2022/04/13 13:00:47;;;;;;;;;;;18.90;36.50;;;;;;4990267;28;19914;-57
2022/04/13 13:03:12;;;;;;;;;;;18.90;36.80;;;;;;4992544;28;19921;-61
2022/04/13 13:05:38;;;;;;;;;;;18.60;36.70;;;;;;4993840;28;19918;-59
2022/04/13 13:08:04;;;;;;;;;;;18.70;37.90;;;;;;4995116;28;19996;-59
2022/04/13 13:10:33;;;;;;;;;;;18.50;36.70;;;;;;4996753;28;19910;-59
2022/04/13 13:13:17;;;;;;;;;;;18.70;36.80;;;;;;4996924;28;20000;-58
2022/04/13 13:15:43;;;;;;;;;;;18.50;36.40;;;;;;4996768;28;20358;-59
2022/04/13 13:18:08;;;;;;;;;;;18.80;36.20;;;;;;4996593;28;19922;-60
2022/04/13 13:20:35;;;;;;;;;;;19.00;35.50;;;;;;4996738;28;19913;-60
2022/04/13 13:23:08;;;;;;;;;;;19.20;34.60;;;;;;4996310;28;19975;-61
2022/04/13 13:25:40;;;;;;;;;;;18.90;35.40;;;;;;4993928;28;19914;-60
2022/04/13 13:28:06;;;;;;;;;;;19.10;35.90;;;;;;4995955;28;20380;-63
2022/04/13 13:30:37;;;;;;;;;;;18.70;34.40;;;;;;4996263;28;19918;-70
2022/04/13 13:33:07;;;;;;;;;;;19.00;35.00;;;;;;4996636;28;19918;-59
2022/04/13 13:35:35;;;;;;;;;;;18.80;34.80;;;;;;4996467;28;19996;-63
2022/04/13 13:38:10;;;;;;;;;;;19.00;35.70;;;;;;4996885;28;19914;-57
2022/04/13 13:40:36;;;;;;;;;;;19.10;35.30;;;;;;4996551;28;19910;-60
2022/04/13 13:43:32;;;;;;;;;;;18.80;34.80;;;;;;4996891;28;20052;-64
2022/04/13 13:45:59;;;;;;;;;;;18.80;35.80;;;;;;4973985;28;19925;-68
2022/04/13 13:48:28;;;;;;;;;;;18.50;36.00;;;;;;4996526;28;20000;-65
2022/04/13 13:50:55;;;;;;;;;;;18.50;36.40;;;;;;4996428;28;19933;-64
2022/04/13 13:53:21;;;;;;;;;;;18.50;36.50;;;;;;4996344;28;20029;-67
2022/04/13 13:55:47;;;;;;;;;;;18.40;36.20;;;;;;4996453;28;20279;-61
2022/04/13 13:58:13;;;;;;;;;;;18.30;36.20;;;;;;4996201;28;20015;-64
2022/04/13 14:00:39;;;;;;;;;;;18.60;37.40;;;;;;4995604;28;19921;-64
2022/04/13 14:03:07;;;;;;;;;;;18.50;36.10;;;;;;4995769;28;19972;-64
2022/04/13 14:05:33;;;;;;;;;;;18.80;37.50;;;;;;4992686;28;19926;-60
2022/04/13 14:08:00;;;;;;;;;;;18.90;37.50;;;;;;4992924;28;19914;-61
2022/04/13 14:10:26;;;;;;;;;;;19.00;37.10;;;;;;4995863;28;19918;-57
2022/04/13 14:12:52;;;;;;;;;;;19.00;35.10;;;;;;4996475;28;19914;-58
2022/04/13 14:15:18;;;;;;;;;;;18.80;35.90;;;;;;4996105;28;20388;-70
2022/04/13 14:17:45;;;;;;;;;;;18.90;35.90;;;;;;4996072;28;20349;-66
2022/04/13 14:20:12;;;;;;;;;;;18.80;34.40;;;;;;4996319;28;19914;-70